Somerset, New Jersey
Current Conditions -  °F | °C
As of 1:53 AM on Monday 24 Nov 2014 (Local Time) from KSMQ Reporting Station
Moderate Rain Moderate Rain  
Wind Chill: 45°   Ceiling: 1200
Heat Index: 45°   Visibility: 2.5mi
Dew Point: 43°   Wind: 3mph
Humidity: 93%   Direction: 320°NW
Pressure: 29.84"   Gusts: NA
Location:  40.5°N, 74.52°W
Report Text: KSMQ 240653Z AUTO 32003KT 2 1/2SM RA BR OVC012 07/06 A2984 RMK AO2 RAE02B21 SLP103 P0006 T00720061
Loading
Personal Weather Stations






























Interactive Weather Map New forecast layout! Learn more

10-Day Weather Forecast

Advertisements
Track Severe Weather on mobile